Time;durP1;ratioP1;P1;durP2;ratioP2;P2;SDS_P1;SDS_P2;PMS_P1;PMS_P2;Temp;Humidity;BMP_temperature;BMP_pressure;BME280_temperature;BME280_humidity;BME280_pressure;Samples;Min_cycle;Max_cycle;Signal;HPM_P1;HPM_P2
2022/12/05 00:00:17;;;;;;;37.25;17.10;;;;;;;9.00;74.59;100748.06;5053508;28;20390;-80
2022/12/05 00:02:43;;;;;;;47.45;16.45;;;;;;;8.41;74.33;100651.56;5053386;28;20500;-80
2022/12/05 00:05:11;;;;;;;40.78;16.77;;;;;;;9.01;74.37;100755.84;5053281;28;20068;-80
2022/12/05 00:07:37;;;;;;;43.45;17.98;;;;;;;8.07;74.25;100599.25;5035655;28;20021;-80
2022/12/05 00:10:03;;;;;;;42.63;19.05;;;;;;;8.34;74.17;100646.00;5053084;28;20049;-80
2022/12/05 00:12:29;;;;;;;34.35;15.88;;;;;;;8.94;74.17;100751.25;5053365;28;20087;-80
2022/12/05 00:14:54;;;;;;;36.63;16.63;;;;;;;8.55;74.39;100688.84;5052112;28;20043;-80
2022/12/05 00:17:20;;;;;;;40.75;16.55;;;;;;;8.62;74.46;100712.81;5053288;28;20545;-80
2022/12/05 00:19:45;;;;;;;34.88;14.30;;;;;;;8.24;74.34;100632.81;5053173;28;20033;-80
2022/12/05 00:22:10;;;;;;;40.75;16.25;;;;;;;7.31;74.14;100488.53;5053234;28;20036;-81
2022/12/05 00:24:36;;;;;;;36.15;15.60;;;;;;;8.69;74.53;100702.56;5053675;28;20032;-80
2022/12/05 00:27:01;;;;;;;39.90;16.90;;;;;;;8.71;73.93;100703.25;5053220;28;20083;-81
2022/12/05 00:29:27;;;;;;;38.95;16.92;;;;;;;8.17;73.89;100612.41;5053006;28;20103;-80
2022/12/05 00:31:52;;;;;;;50.47;21.98;;;;;;;8.64;74.25;100702.97;5034561;28;20024;-80
2022/12/05 00:34:17;;;;;;;40.78;18.73;;;;;;;9.01;74.69;100752.38;5052958;28;20074;-80
2022/12/05 00:36:43;;;;;;;41.42;17.42;;;;;;;8.68;74.06;100704.38;5053013;28;20025;-80
2022/12/05 00:39:10;;;;;;;43.80;18.00;;;;;;;8.73;74.50;100707.41;5052936;28;20024;-80
2022/12/05 00:41:36;;;;;;;47.33;19.33;;;;;;;8.71;73.89;100703.25;5052953;28;20116;-80
2022/12/05 00:44:03;;;;;;;36.75;16.73;;;;;;;8.68;74.18;100699.09;5034882;28;20051;-80
2022/12/05 00:46:30;;;;;;;35.72;16.63;;;;;;;9.07;74.16;100755.28;5034801;28;20024;-80
2022/12/05 00:48:56;;;;;;;31.48;15.38;;;;;;;8.64;73.96;100683.72;5052787;28;20095;-80
2022/12/05 00:51:36;;;;;;;25.70;13.63;;;;;;;8.74;73.66;100703.81;5034644;28;20466;-80
2022/12/05 00:54:08;;;;;;;28.08;14.95;;;;;;;8.55;74.09;100674.84;5052672;28;20060;-80
2022/12/05 00:56:34;;;;;;;27.30;13.85;;;;;;;8.60;74.22;100699.78;5034666;28;20025;-80
2022/12/05 00:59:01;;;;;;;29.98;15.10;;;;;;;8.47;73.87;100665.00;5052520;28;20067;-80
2022/12/05 01:01:32;;;;;;;29.67;14.65;;;;;;;9.04;73.96;100747.66;5052400;28;20025;-80
2022/12/05 01:04:03;;;;;;;28.60;16.42;;;;;;;8.22;73.95;100610.25;5034510;28;20039;-80
2022/12/05 01:06:28;;;;;;;25.25;14.77;;;;;;;8.47;73.70;100664.16;5052371;28;20040;-80
2022/12/05 01:08:55;;;;;;;26.70;13.65;;;;;;;9.04;73.75;100741.56;5041176;28;20045;-80
2022/12/05 01:11:22;;;;;;;23.73;14.20;;;;;;;8.97;74.06;100733.38;5052314;28;20036;-80
2022/12/05 01:13:48;;;;;;;24.55;16.13;;;;;;;9.04;74.28;100752.91;5052275;28;20494;-80
2022/12/05 01:16:19;;;;;;;27.20;16.20;;;;;;;8.00;74.12;100576.25;5050966;28;20032;-80
2022/12/05 01:18:45;;;;;;;24.65;14.57;;;;;;;8.34;74.15;100642.53;5052157;28;20033;-80
2022/12/05 01:21:11;;;;;;;20.25;12.88;;;;;;;8.70;74.32;100715.59;5050993;28;20552;-80
2022/12/05 01:23:36;;;;;;;29.48;15.55;;;;;;;8.90;74.22;100740.97;5052023;28;20506;-80
2022/12/05 01:26:08;;;;;;;33.05;17.27;;;;;;;8.04;74.18;100625.00;5051652;28;20025;-80
2022/12/05 01:28:34;;;;;;;;;;;;;;;8.84;74.29;100744.16;5052416;28;20031;-80
2022/12/05 01:31:07;;;;;;;33.13;17.02;;;;;;;8.53;74.34;100692.56;5051961;28;20387;-80
2022/12/05 01:33:33;;;;;;;26.88;14.57;;;;;;;8.13;73.98;100598.69;5052075;28;20056;-80
2022/12/05 01:35:59;;;;;;;31.15;16.08;;;;;;;8.42;74.00;100648.78;5052446;28;20028;-81
2022/12/05 01:38:24;;;;;;;34.38;17.73;;;;;;;8.56;74.22;100676.50;5052147;28;20029;-82
2022/12/05 01:40:58;;;;;;;29.35;15.85;;;;;;;8.65;74.16;100695.91;5050684;28;20021;-81
2022/12/05 01:43:24;;;;;;;28.15;14.98;;;;;;;8.75;74.35;100707.28;5050463;28;20063;-81
2022/12/05 01:45:49;;;;;;;28.35;14.02;;;;;;;8.66;74.24;100693.13;5051834;28;20112;-82
2022/12/05 01:48:21;;;;;;;21.30;11.77;;;;;;;8.96;74.24;100734.34;5050419;28;20107;-81
2022/12/05 01:50:48;;;;;;;21.15;12.32;;;;;;;8.72;74.25;100700.47;5051509;28;20024;-81
2022/12/05 01:53:15;;;;;;;27.05;14.52;;;;;;;8.95;74.32;100723.94;5051656;28;20065;-81
2022/12/05 01:55:41;;;;;;;24.52;13.07;;;;;;;8.46;74.17;100647.53;5050223;28;20025;-81
2022/12/05 01:58:08;;;;;;;21.67;12.43;;;;;;;8.27;74.37;100610.66;5051774;28;20479;-81
2022/12/05 02:00:34;;;;;;;19.27;12.35;;;;;;;8.66;73.91;100681.78;5051745;28;20425;-80
2022/12/05 02:03:05;;;;;;;17.05;11.10;;;;;;;8.37;74.31;100647.53;5051680;28;20024;-80
2022/12/05 02:05:33;;;;;;;14.80;9.93;;;;;;;8.95;74.01;100723.94;5064039;28;20033;-81
2022/12/05 02:08:01;;;;;;;13.60;9.20;;;;;;;8.95;74.00;100721.31;5070351;28;20040;-81
2022/12/05 02:10:30;;;;;;;12.05;10.15;;;;;;;8.51;73.91;100641.88;5051455;28;20462;-81
2022/12/05 02:13:00;;;;;;;12.95;10.30;;;;;;;8.90;74.11;100709.34;5051891;28;20100;-81
2022/12/05 02:16:12;;;;;;;11.15;9.25;;;;;;;8.88;73.98;100719.19;5051840;28;20040;-81
2022/12/05 02:19:07;;;;;;;16.93;11.53;;;;;;;8.48;73.95;100655.31;5015026;28;20514;-81
2022/12/05 02:21:50;;;;;;;12.82;9.38;;;;;;;8.88;73.96;100695.50;5050601;28;20297;-80
2022/12/05 02:25:00;;;;;;;12.90;10.40;;;;;;;8.90;73.99;100695.34;5051246;28;20531;-80
2022/12/05 02:27:48;;;;;;;9.65;8.35;;;;;;;8.90;74.02;100700.63;5053390;28;20553;-80
2022/12/05 02:30:19;;;;;;;9.80;7.93;;;;;;;8.44;73.71;100628.44;5055386;28;20029;-80
2022/12/05 02:32:45;;;;;;;10.10;7.40;;;;;;;8.89;74.00;100704.22;5055369;28;20618;-80
2022/12/05 02:35:32;;;;;;;9.60;8.38;;;;;;;8.89;73.53;100702.44;5055604;28;20047;-80
2022/12/05 02:38:15;;;;;;;10.45;7.80;;;;;;;8.88;73.70;100692.03;5037755;28;20466;-80
2022/12/05 02:40:40;;;;;;;9.70;8.38;;;;;;;8.89;74.16;100693.69;5037281;28;20021;-80
2022/12/05 02:43:19;;;;;;;9.55;7.75;;;;;;;8.44;73.94;100611.81;5055119;28;20024;-80
2022/12/05 02:45:49;;;;;;;9.25;8.00;;;;;;;8.94;74.01;100695.94;5037050;28;20036;-80
2022/12/05 02:48:17;;;;;;;11.52;9.25;;;;;;;8.62;74.06;100661.97;5055045;28;20489;-80
2022/12/05 02:50:45;;;;;;;15.73;11.57;;;;;;;8.74;73.81;100679.28;5054843;28;20074;-80
2022/12/05 02:53:14;;;;;;;14.77;11.10;;;;;;;8.80;73.64;100676.09;5054817;28;20126;-80
2022/12/05 02:55:40;;;;;;;12.32;8.88;;;;;;;8.54;74.05;100636.31;5055243;28;20024;-80
2022/12/05 02:58:16;;;;;;;10.63;9.15;;;;;;;8.51;74.13;100639.25;5037298;28;20405;-80
2022/12/05 03:00:46;;;;;;;11.18;9.25;;;;;;;8.74;73.97;100685.38;5054762;28;20028;-80
2022/12/05 03:03:17;;;;;;;11.68;9.45;;;;;;;8.86;74.04;100697.44;5036685;28;20532;-80
2022/12/05 03:05:53;;;;;;;10.25;9.15;;;;;;;8.35;73.87;100617.91;5054503;28;20410;-80
2022/12/05 03:08:27;;;;;;;15.38;9.48;;;;;;;8.72;74.07;100670.69;5038499;28;20575;-80
2022/12/05 03:10:55;;;;;;;12.43;9.25;;;;;;;8.58;73.75;100653.50;5054579;28;20025;-80
2022/12/05 03:13:26;;;;;;;11.05;9.80;;;;;;;8.52;73.97;100651.44;5054597;28;20033;-80
2022/12/05 03:15:59;;;;;;;12.25;8.95;;;;;;;8.55;74.25;100665.16;5052602;28;20029;-80
2022/12/05 03:18:44;;;;;;;10.55;8.40;;;;;;;8.36;74.16;100627.44;5054368;28;20032;-80
2022/12/05 03:21:24;;;;;;;11.05;9.02;;;;;;;8.83;74.07;100710.88;5054242;28;20025;-80
2022/12/05 03:23:56;;;;;;;9.57;8.25;;;;;;;8.81;73.97;100714.63;5054510;28;20032;-80
2022/12/05 03:26:40;;;;;;;9.50;8.15;;;;;;;8.76;74.02;100696.59;5069675;28;20454;-80
2022/12/05 03:29:35;;;;;;;12.93;9.95;;;;;;;8.00;74.19;100576.25;5052981;28;20021;-80
2022/12/05 03:32:06;;;;;;;11.13;8.55;;;;;;;8.72;74.42;100682.06;5054075;28;20477;-80
2022/12/05 03:34:41;;;;;;;11.65;8.98;;;;;;;8.68;74.06;100679.84;5054178;28;20083;-80
2022/12/05 03:37:12;;;;;;;10.60;8.65;;;;;;;8.46;74.29;100663.34;5053260;28;20040;-80
2022/12/05 03:39:44;;;;;;;11.85;9.30;;;;;;;8.46;74.18;100659.88;5053017;28;20025;-80
2022/12/05 03:42:15;;;;;;;;;;;;;;;8.52;74.68;100689.09;5054525;28;20418;-80
2022/12/05 03:44:53;;;;;;;16.60;13.35;;;;;;;8.61;74.56;100684.81;5054171;28;19909;-80
2022/12/05 03:47:26;;;;;;;14.38;12.20;;;;;;;8.66;74.32;100687.03;5054078;28;20450;-80
2022/12/05 03:49:58;;;;;;;12.20;10.90;;;;;;;8.56;74.14;100682.59;5052573;28;20033;-80
2022/12/05 03:52:41;;;;;;;22.00;14.73;;;;;;;8.38;74.11;100650.03;5053632;28;20020;-80
2022/12/05 03:55:09;;;;;;;14.63;10.88;;;;;;;8.68;74.35;100701.72;5052568;28;20051;-81
2022/12/05 03:57:42;;;;;;;13.20;10.85;;;;;;;8.21;74.39;100630.44;5054319;28;20445;-80
2022/12/05 04:00:19;;;;;;;10.75;9.30;;;;;;;8.09;74.26;100612.25;5052174;28;20029;-80
2022/12/05 04:02:54;;;;;;;10.90;9.77;;;;;;;8.63;74.48;100701.31;5052231;28;20561;-80
2022/12/05 04:05:25;;;;;;;11.38;9.02;;;;;;;8.59;74.61;100713.91;5052454;28;20036;-80
2022/12/05 04:08:05;;;;;;;12.00;10.70;;;;;;;8.08;74.58;100631.63;5053624;28;20079;-80
2022/12/05 04:10:47;;;;;;;17.05;11.85;;;;;;;8.53;74.55;100697.84;5052642;28;20021;-80
2022/12/05 04:13:17;;;;;;;15.38;11.23;;;;;;;8.21;74.33;100621.72;5035688;28;20398;-81
2022/12/05 04:18:43;;;;;;;16.38;14.07;;;;;;;8.34;74.01;100637.28;5053484;28;20039;-81
2022/12/05 04:26:45;;;;;;;17.05;12.20;;;;;;;8.54;74.50;100673.19;5053405;28;20083;-79
2022/12/05 04:29:21;;;;;;;17.10;12.45;;;;;;;8.17;74.80;100636.09;5053162;28;20025;-80
2022/12/05 04:31:51;;;;;;;19.33;12.73;;;;;;;7.91;74.43;100584.00;5052990;28;20028;-80
2022/12/05 04:34:19;;;;;;;17.55;12.13;;;;;;;8.22;74.65;100682.09;5052994;28;20059;-80
2022/12/05 04:36:55;;;;;;;14.32;9.55;;;;;;;8.22;74.43;100652.31;5053203;28;20486;-81
2022/12/05 04:39:32;;;;;;;14.57;10.77;;;;;;;8.63;74.44;100701.31;5035289;28;20586;-81
2022/12/05 04:42:09;;;;;;;10.82;8.65;;;;;;;8.18;74.21;100643.88;5035117;28;20021;-80
2022/12/05 04:44:42;;;;;;;17.55;13.80;;;;;;;7.40;74.06;100489.50;5052979;28;20044;-81
2022/12/05 04:47:13;;;;;;;12.60;10.05;;;;;;;8.38;74.51;100660.56;5034980;28;20509;-81
2022/12/05 04:49:41;;;;;;;12.43;9.93;;;;;;;8.61;73.97;100669.03;5035006;28;20068;-81
2022/12/05 04:52:10;;;;;;;13.75;10.85;;;;;;;8.07;74.00;100585.25;5052575;28;20029;-81
2022/12/05 04:54:45;;;;;;;11.68;10.02;;;;;;;8.51;73.90;100660.28;5052676;28;20017;-81
2022/12/05 04:57:26;;;;;;;11.18;9.57;;;;;;;8.35;73.45;100644.22;5052647;28;20059;-82
2022/12/05 04:59:52;;;;;;;15.02;11.02;;;;;;;8.18;73.88;100617.56;5052564;28;20480;-82
2022/12/05 05:02:39;;;;;;;11.57;9.48;;;;;;;8.41;73.91;100659.44;5055756;28;20024;-82
2022/12/05 05:05:10;;;;;;;13.93;9.48;;;;;;;8.30;73.86;100647.22;5055366;28;20032;-81
2022/12/05 05:07:49;;;;;;;14.35;12.70;;;;;;;8.77;73.68;100715.88;5052674;28;20509;-80
2022/12/05 05:10:25;;;;;;;21.40;17.10;;;;;;;8.62;73.65;100688.28;5052268;28;20041;-81
2022/12/05 05:12:51;;;;;;;18.95;14.90;;;;;;;8.47;73.66;100664.16;5052462;28;20465;-81
2022/12/05 05:15:16;;;;;;;19.48;13.35;;;;;;;8.19;73.37;100619.22;5052332;28;20052;-80
2022/12/05 05:17:42;;;;;;;13.68;9.63;;;;;;;8.31;73.66;100637.53;5052181;28;20490;-80
2022/12/05 05:20:22;;;;;;;14.60;10.18;;;;;;;7.78;73.93;100551.03;5052175;28;20124;-79
2022/12/05 05:22:49;;;;;;;14.73;10.68;;;;;;;8.65;73.91;100707.28;5034300;28;20021;-79
2022/12/05 05:25:15;;;;;;;13.48;10.35;;;;;;;8.35;73.48;100652.09;5034093;28;20029;-80
2022/12/05 05:27:40;;;;;;;15.60;10.38;;;;;;;8.48;73.72;100671.94;5033973;28;20023;-80
2022/12/05 05:30:06;;;;;;;16.17;11.30;;;;;;;8.71;73.85;100713.78;5051992;28;20100;-79
2022/12/05 05:32:32;;;;;;;13.27;11.18;;;;;;;8.50;73.61;100712.09;5052039;28;20107;-80
2022/12/05 05:34:57;;;;;;;15.23;12.07;;;;;;;8.64;73.67;100702.97;5034111;28;20112;-80
2022/12/05 05:37:23;;;;;;;17.25;11.95;;;;;;;8.74;73.59;100700.34;5052007;28;20074;-80
2022/12/05 05:39:48;;;;;;;15.25;10.93;;;;;;;8.65;73.47;100677.47;5051726;28;20147;-79
2022/12/05 05:42:13;;;;;;;17.23;12.95;;;;;;;8.15;73.39;100595.94;5051626;28;20059;-80
2022/12/05 05:44:39;;;;;;;16.48;12.77;;;;;;;8.18;73.30;100596.53;5051581;28;20112;-80
2022/12/05 05:47:04;;;;;;;16.55;12.45;;;;;;;8.14;73.03;100589.00;5051530;28;20032;-80
2022/12/05 05:49:29;;;;;;;13.68;10.38;;;;;;;8.62;73.05;100699.66;5051737;28;20464;-79
2022/12/05 05:51:55;;;;;;;9.52;8.40;;;;;;;8.43;72.87;100631.19;5050183;28;20071;-80
2022/12/05 05:54:20;;;;;;;11.05;8.55;;;;;;;8.65;72.89;100667.78;5051539;28;20390;-80
2022/12/05 05:56:46;;;;;;;15.45;9.77;;;;;;;8.70;72.66;100670.81;5033123;28;20086;-80
2022/12/05 05:59:11;;;;;;;12.35;9.93;;;;;;;8.62;72.60;100656.69;5051518;28;20029;-80
2022/12/05 06:01:36;;;;;;;14.77;11.85;;;;;;;8.49;72.64;100654.34;5050857;28;20472;-79
2022/12/05 06:04:02;;;;;;;18.48;13.38;;;;;;;8.64;72.49;100655.59;5051369;28;20082;-79
2022/12/05 06:06:27;;;;;;;13.07;10.20;;;;;;;8.10;72.70;100577.09;5051409;28;20437;-80
2022/12/05 06:08:53;;;;;;;15.50;11.35;;;;;;;9.06;72.46;100723.81;5051266;28;20080;-80
2022/12/05 06:11:25;;;;;;;14.60;11.63;;;;;;;8.97;72.43;100699.13;5033477;28;20104;-79
2022/12/05 06:13:51;;;;;;;14.77;11.95;;;;;;;8.32;72.21;100602.34;5053498;28;20025;-80
2022/12/05 06:16:19;;;;;;;15.88;12.13;;;;;;;9.14;72.77;100724.78;5053281;28;20031;-80
2022/12/05 06:18:45;;;;;;;15.68;11.82;;;;;;;8.94;72.16;100727.56;5053355;28;20020;-80
2022/12/05 06:21:11;;;;;;;14.90;11.82;;;;;;;8.79;71.93;100664.72;5071005;28;20085;-79
2022/12/05 06:23:38;;;;;;;18.63;12.13;;;;;;;9.16;72.15;100727.25;5071201;28;20411;-80
2022/12/05 06:26:05;;;;;;;16.33;12.75;;;;;;;9.13;72.13;100738.09;5070599;28;20032;-80
2022/12/05 06:28:31;;;;;;;16.83;12.40;;;;;;;9.13;72.26;100724.91;5069728;28;20397;-79
2022/12/05 06:30:57;;;;;;;12.43;10.93;;;;;;;9.14;72.09;100732.66;5071082;28;20025;-79
2022/12/05 06:33:22;;;;;;;15.15;13.55;;;;;;;8.38;72.03;100601.84;5052527;28;20036;-79
2022/12/05 06:35:47;;;;;;;14.32;11.85;;;;;;;8.51;71.92;100642.69;5051200;28;20058;-80
2022/12/05 06:38:13;;;;;;;16.98;10.77;;;;;;;8.33;72.10;100611.91;5033036;28;20116;-80
2022/12/05 06:40:43;;;;;;;12.35;10.90;;;;;;;8.52;71.97;100661.94;5056398;28;20078;-79
2022/12/05 06:43:10;;;;;;;15.65;13.95;;;;;;;9.16;71.81;100745.72;5052975;28;20032;-79
2022/12/05 06:45:39;;;;;;;14.95;13.07;;;;;;;8.59;72.18;100655.16;5070871;28;20407;-79
2022/12/05 06:48:05;;;;;;;15.18;11.32;;;;;;;8.99;72.33;100717.44;5071010;28;20446;-80
2022/12/05 06:50:31;;;;;;;12.93;11.18;;;;;;;8.55;71.37;100619.56;5053049;28;20524;-79
2022/12/05 06:52:56;;;;;;;12.32;11.02;;;;;;;8.69;71.53;100645.47;5070033;28;20033;-79
2022/12/05 06:55:22;;;;;;;17.05;12.10;;;;;;;8.82;71.62;100688.16;5070685;28;20085;-79
2022/12/05 06:57:47;;;;;;;18.15;14.20;;;;;;;8.96;71.32;100701.91;5070467;28;20037;-79
2022/12/05 07:02:57;;;;;;;17.92;13.57;;;;;;;8.63;71.80;100653.91;5070328;28;20117;-79
2022/12/05 07:05:22;;;;;;;20.35;17.33;;;;;;;9.22;71.90;100760.97;5070622;28;20481;-80
2022/12/05 07:07:48;;;;;;;15.35;13.57;;;;;;;9.18;71.63;100765.69;5070086;28;20748;-79
2022/12/05 07:10:13;;;;;;;19.75;14.23;;;;;;;8.95;71.82;100735.31;5070295;28;20025;-80
2022/12/05 07:12:38;;;;;;;17.20;12.93;;;;;;;8.64;72.07;100702.13;5053465;28;20060;-80
2022/12/05 07:15:04;;;;;;;18.33;14.68;;;;;;;8.67;71.65;100686.06;5056148;28;20024;-80
2022/12/05 07:17:35;;;;;;;14.80;12.57;;;;;;;9.21;72.04;100769.84;5074186;28;20028;-80
2022/12/05 07:20:00;;;;;;;14.55;12.68;;;;;;;8.58;71.94;100650.88;5073962;28;20489;-80
2022/12/05 07:22:26;;;;;;;13.05;11.45;;;;;;;8.56;71.67;100637.03;5074193;28;20039;-80
2022/12/05 07:24:54;;;;;;;15.40;12.95;;;;;;;8.84;71.98;100730.16;5074197;28;20028;-80
2022/12/05 07:27:19;;;;;;;14.35;12.02;;;;;;;9.12;71.35;100739.06;5074178;28;20113;-80
2022/12/05 07:29:44;;;;;;;18.05;14.57;;;;;;;9.02;71.27;100717.97;5073396;28;20107;-80
2022/12/05 07:32:10;;;;;;;23.73;17.00;;;;;;;8.67;71.24;100642.16;5065145;28;20530;-80
2022/12/05 07:34:37;;;;;;;20.65;16.45;;;;;;;8.95;71.30;100693.16;5073664;28;20024;-81
2022/12/05 07:37:03;;;;;;;20.58;15.95;;;;;;;9.44;71.37;100771.19;5074163;28;20025;-82
2022/12/05 07:39:29;;;;;;;20.60;15.68;;;;;;;8.71;71.09;100675.13;5056015;28;20451;-81
2022/12/05 07:41:54;;;;;;;20.65;15.90;;;;;;;8.67;71.25;100671.09;5073983;28;20032;-81
2022/12/05 07:44:20;;;;;;;18.23;15.75;;;;;;;8.68;71.04;100658.78;5069616;28;20028;-80
2022/12/05 07:46:45;;;;;;;22.60;17.85;;;;;;;9.19;71.20;100737.53;5053110;28;20108;-82
2022/12/05 07:49:10;;;;;;;16.50;14.70;;;;;;;9.51;70.33;100782.84;5066776;28;20025;-82
2022/12/05 07:51:36;;;;;;;22.95;16.83;;;;;;;8.87;70.16;100682.47;5059926;28;20558;-80
2022/12/05 07:54:02;;;;;;;15.98;14.27;;;;;;;8.26;70.03;100599.31;5062748;28;20092;-82
2022/12/05 07:56:27;;;;;;;17.98;15.40;;;;;;;9.17;69.51;100718.38;5094173;28;20060;-81
2022/12/05 07:58:53;;;;;;;20.15;16.88;;;;;;;9.20;69.39;100715.47;5096362;28;20043;-81
2022/12/05 08:01:27;;;;;;;23.60;16.77;;;;;;;9.14;69.18;100694.97;5081448;28;20162;-81
2022/12/05 08:03:55;;;;;;;16.05;14.00;;;;;;;8.95;69.10;100656.28;5065375;28;20115;-81
2022/12/05 08:06:23;;;;;;;15.85;13.55;;;;;;;9.60;68.44;100754.81;5066958;28;20481;-80
2022/12/05 08:08:49;;;;;;;16.25;14.38;;;;;;;9.80;69.13;100782.81;5071809;28;20101;-81
2022/12/05 08:11:20;;;;;;;17.95;13.80;;;;;;;9.83;68.88;100785.19;5071779;28;20031;-80
2022/12/05 08:13:46;;;;;;;11.70;9.13;;;;;;;9.17;68.91;100692.88;5053908;28;20028;-80
2022/12/05 08:16:15;;;;;;;11.95;9.60;;;;;;;9.85;68.42;100783.22;5070286;28;20036;-80
2022/12/05 08:18:40;;;;;;;11.55;9.45;;;;;;;9.87;69.02;100777.81;5073113;28;20099;-80
2022/12/05 08:21:11;;;;;;;14.30;10.65;;;;;;;9.88;68.52;100771.56;5077767;28;20166;-80
2022/12/05 08:23:38;;;;;;;13.65;11.02;;;;;;;9.26;68.57;100669.28;5070494;28;20028;-80
2022/12/05 08:26:07;;;;;;;10.90;9.65;;;;;;;9.97;68.65;100789.16;5065274;28;20028;-80
2022/12/05 08:28:32;;;;;;;13.10;10.80;;;;;;;9.98;68.85;100772.34;5072242;28;20082;-80
2022/12/05 08:31:16;;;;;;;11.77;9.45;;;;;;;9.42;67.88;100682.69;5071113;28;20021;-79
2022/12/05 08:33:42;;;;;;;14.98;12.20;;;;;;;9.46;67.77;100673.53;5046410;28;20503;-80
2022/12/05 08:36:11;;;;;;;12.65;10.63;;;;;;;10.10;68.39;100762.44;5072488;28;20123;-79
2022/12/05 08:38:37;;;;;;;15.48;11.68;;;;;;;10.10;68.01;100768.56;5054428;28;20016;-80
2022/12/05 08:41:04;;;;;;;15.95;11.75;;;;;;;10.08;68.15;100767.03;5071815;28;20029;-79
2022/12/05 08:43:31;;;;;;;14.43;9.50;;;;;;;9.54;67.78;100692.94;5071691;28;20108;-79
2022/12/05 08:45:57;;;;;;;11.43;8.77;;;;;;;10.08;67.63;100770.50;5069848;28;20024;-80
2022/12/05 08:48:23;;;;;;;12.50;10.40;;;;;;;9.88;67.97;100729.34;5071402;28;20028;-82
2022/12/05 08:50:49;;;;;;;14.50;11.48;;;;;;;10.18;67.40;100760.75;5071570;28;20036;-82
2022/12/05 08:53:15;;;;;;;19.05;11.90;;;;;;;10.11;67.60;100754.38;5054468;28;20028;-82
2022/12/05 08:55:40;;;;;;;16.02;12.77;;;;;;;10.01;67.06;100734.28;5058440;28;20546;-82
2022/12/05 08:58:06;;;;;;;16.88;11.32;;;;;;;9.67;67.05;100654.88;5066004;28;20032;-82
2022/12/05 09:00:31;;;;;;;13.68;11.93;;;;;;;9.64;67.46;100641.97;5071423;28;20048;-83
2022/12/05 09:02:58;;;;;;;15.85;11.05;;;;;;;10.08;67.50;100720.38;5051812;28;20386;-79
2022/12/05 09:05:24;;;;;;;12.82;9.85;;;;;;;10.49;67.46;100757.88;5071556;28;20047;-81
2022/12/05 09:07:49;;;;;;;13.43;11.73;;;;;;;10.57;67.07;100775.63;5069206;28;20031;-80
2022/12/05 09:10:15;;;;;;;15.90;12.60;;;;;;;10.62;66.79;100746.97;5071554;28;20036;-79
2022/12/05 09:12:40;;;;;;;16.45;13.25;;;;;;;10.47;66.85;100704.38;5048830;28;20040;-81
2022/12/05 09:15:08;;;;;;;17.35;12.45;;;;;;;10.46;66.08;100685.06;5051819;28;20489;-81
2022/12/05 09:17:33;;;;;;;17.10;14.32;;;;;;;10.13;65.66;100620.50;5056041;28;20033;-80
2022/12/05 09:19:59;;;;;;;20.08;15.10;;;;;;;10.97;65.66;100735.56;5062202;28;20028;-80
2022/12/05 09:22:24;;;;;;;22.85;16.10;;;;;;;10.28;65.77;100620.84;5058268;28;20059;-80
2022/12/05 09:24:50;;;;;;;19.90;14.90;;;;;;;10.16;65.09;100592.97;5069836;28;20027;-79
2022/12/05 09:27:15;;;;;;;14.32;12.48;;;;;;;10.16;65.53;100614.09;5055263;28;20142;-80
2022/12/05 09:29:41;;;;;;;18.33;15.95;;;;;;;10.79;65.30;100744.34;5051709;28;20051;-79
2022/12/05 09:32:07;;;;;;;19.70;16.67;;;;;;;10.04;65.23;100610.81;5048444;28;20089;-80
2022/12/05 09:34:33;;;;;;;22.75;16.83;;;;;;;10.51;65.28;100689.91;5069379;28;20029;-82
2022/12/05 09:37:00;;;;;;;19.02;15.68;;;;;;;9.92;65.41;100604.09;5069900;28;20028;-81
2022/12/05 09:39:26;;;;;;;18.63;13.93;;;;;;;10.29;65.85;100658.63;5067911;28;20112;-79
2022/12/05 09:42:03;;;;;;;21.42;17.67;;;;;;;10.66;65.63;100713.97;5069858;28;20475;-79
2022/12/05 09:44:57;;;;;;;18.13;15.15;;;;;;;10.59;65.48;100710.28;5068278;28;20512;-79
2022/12/05 09:47:56;;;;;;;21.85;16.90;;;;;;;10.59;66.02;100700.53;5037389;28;20451;-79
2022/12/05 09:50:32;;;;;;;22.42;17.67;;;;;;;10.59;65.50;100708.47;5035266;28;20497;-79
2022/12/05 09:53:13;;;;;;;21.02;17.17;;;;;;;9.88;65.37;100584.25;5069819;28;20024;-79
2022/12/05 09:55:50;;;;;;;22.65;18.52;;;;;;;10.56;66.09;100684.16;5050369;28;20036;-79
2022/12/05 09:58:32;;;;;;;21.73;15.80;;;;;;;10.12;65.29;100644.38;5050524;28;20058;-80
2022/12/05 10:01:24;;;;;;;19.23;15.70;;;;;;;10.38;64.92;100663.00;5066099;28;20027;-79
2022/12/05 10:04:27;;;;;;;20.00;17.30;;;;;;;10.66;64.64;100690.22;5043660;28;20032;-79
2022/12/05 10:07:00;;;;;;;20.27;16.67;;;;;;;10.64;65.41;100693.00;5051152;28;20029;-79
2022/12/05 10:09:26;;;;;;;22.50;19.00;;;;;;;10.69;65.53;100688.09;5053462;28;20170;-79
2022/12/05 10:12:04;;;;;;;21.13;16.77;;;;;;;10.07;64.74;100589.41;5069235;28;20054;-79
2022/12/05 10:14:32;;;;;;;22.00;17.80;;;;;;;10.69;64.90;100680.19;5067613;28;20048;-79
2022/12/05 10:17:22;;;;;;;22.30;17.63;;;;;;;10.07;64.70;100620.25;5068728;28;20055;-79
2022/12/05 10:19:52;;;;;;;22.55;19.13;;;;;;;10.39;64.54;100646.19;5069064;28;20032;-79
2022/12/05 10:22:27;;;;;;;27.10;18.10;;;;;;;10.62;65.13;100678.28;5067861;28;20042;-79
2022/12/05 10:24:59;;;;;;;20.50;15.98;;;;;;;10.16;64.77;100592.97;5059917;28;20512;-79
2022/12/05 10:27:36;;;;;;;19.52;15.65;;;;;;;9.91;64.10;100554.94;5062100;28;20103;-79
2022/12/05 10:30:14;;;;;;;19.48;17.30;;;;;;;10.22;64.76;100616.16;5065884;28;20051;-79
2022/12/05 10:33:01;;;;;;;22.10;18.98;;;;;;;10.66;64.55;100672.56;5060905;28;20115;-80
2022/12/05 10:35:26;;;;;;;18.42;14.95;;;;;;;10.68;64.21;100667.94;5058756;28;20032;-79
2022/12/05 10:37:58;;;;;;;20.77;16.90;;;;;;;9.99;64.10;100551.56;5063230;28;20686;-79
2022/12/05 10:40:33;;;;;;;21.90;17.45;;;;;;;10.81;63.21;100684.25;5063182;28;20103;-79
2022/12/05 10:42:58;;;;;;;21.98;16.40;;;;;;;10.32;63.42;100573.84;5053272;28;20036;-79
2022/12/05 10:45:24;;;;;;;22.52;17.48;;;;;;;10.89;63.33;100649.13;5064019;28;20025;-79
2022/12/05 10:47:56;;;;;;;19.67;15.93;;;;;;;10.91;63.24;100656.91;5051369;28;20421;-79
2022/12/05 10:50:35;;;;;;;23.30;18.17;;;;;;;10.65;62.94;100615.44;5036470;28;20450;-79
2022/12/05 10:53:03;;;;;;;21.05;15.90;;;;;;;10.95;63.27;100655.63;5045256;28;20028;-79
2022/12/05 10:55:36;;;;;;;20.13;15.93;;;;;;;10.92;63.39;100655.94;5063698;28;20032;-79
2022/12/05 10:58:21;;;;;;;17.77;15.73;;;;;;;10.88;62.66;100649.28;5074402;28;20034;-79
2022/12/05 11:00:50;;;;;;;22.50;17.35;;;;;;;10.43;62.71;100565.72;5065802;28;20409;-79
2022/12/05 11:03:35;;;;;;;20.35;17.13;;;;;;;10.86;62.79;100619.56;5063176;28;20109;-79
2022/12/05 11:06:13;;;;;;;19.95;16.35;;;;;;;11.03;63.05;100639.84;5072287;28;20031;-79
2022/12/05 11:08:39;;;;;;;21.45;16.23;;;;;;;10.74;63.17;100593.38;5061200;28;20107;-80
2022/12/05 11:11:04;;;;;;;23.90;16.00;;;;;;;11.06;63.14;100634.25;5067683;28;20579;-79
2022/12/05 11:13:31;;;;;;;19.50;15.98;;;;;;;10.67;62.99;100567.75;5071036;28;20028;-79
2022/12/05 11:15:56;;;;;;;20.02;17.13;;;;;;;10.43;63.29;100550.72;5062654;28;20025;-78
2022/12/05 11:18:29;;;;;;;22.48;18.20;;;;;;;10.55;63.32;100569.78;5057677;28;20420;-79
2022/12/05 11:20:55;;;;;;;17.73;15.80;;;;;;;10.53;63.37;100571.75;5059843;28;20115;-79
2022/12/05 11:23:29;;;;;;;20.75;15.93;;;;;;;10.89;63.17;100627.19;5061989;28;20111;-79
2022/12/05 11:25:56;;;;;;;24.45;17.85;;;;;;;10.85;63.86;100631.09;5069543;28;20413;-79
2022/12/05 11:28:32;;;;;;;20.73;17.42;;;;;;;10.85;63.45;100617.91;5064516;28;20108;-79
2022/12/05 11:31:05;;;;;;;22.05;16.60;;;;;;;10.85;63.44;100621.38;5053741;28;20036;-79
2022/12/05 11:33:33;;;;;;;23.90;15.90;;;;;;;10.82;63.48;100622.50;5064689;28;20102;-79
2022/12/05 11:36:13;;;;;;;20.10;15.80;;;;;;;10.81;63.57;100627.94;5073187;28;20489;-79
2022/12/05 11:38:40;;;;;;;23.52;16.10;;;;;;;10.57;63.87;100588.97;5070476;28;20035;-79
2022/12/05 11:41:32;;;;;;;23.40;18.08;;;;;;;10.83;63.69;100604.84;5071256;28;20429;-79